createdAt,value
2023-04-02T00:01:01.621Z,8.57
2023-04-02T00:06:33.178Z,8.32
2023-04-02T00:11:38.825Z,7.93
2023-04-02T00:16:41.651Z,7.65
2023-04-02T00:21:45.943Z,4.90
2023-04-02T00:26:51.195Z,7.07
2023-04-02T00:31:54.869Z,7.13
2023-04-02T00:42:06.280Z,5.93
2023-04-02T00:47:22.911Z,5.55
2023-04-02T00:52:28.344Z,6.00
2023-04-02T00:57:33.767Z,5.68
2023-04-02T01:02:38.777Z,5.90
2023-04-02T01:07:52.304Z,5.78
2023-04-02T01:13:33.895Z,6.13
2023-04-02T01:18:57.074Z,5.60
2023-04-02T01:24:02.807Z,5.30
2023-04-02T01:29:28.078Z,5.50
2023-04-02T01:34:31.196Z,4.95
2023-04-02T01:39:46.073Z,5.38
2023-04-02T01:45:01.681Z,5.00
2023-04-02T01:50:24.482Z,4.53
2023-04-02T01:55:43.114Z,4.82
2023-04-02T02:01:07.350Z,4.68
2023-04-02T02:06:16.249Z,4.20
2023-04-02T02:11:22.689Z,4.55
2023-04-02T02:16:29.492Z,4.28
2023-04-02T02:21:45.515Z,4.60
2023-04-02T02:26:51.611Z,4.00
2023-04-02T02:31:55.186Z,3.72
2023-04-02T02:37:11.142Z,3.97
2023-04-02T02:42:18.598Z,4.07
2023-04-02T02:47:28.448Z,4.28
2023-04-02T02:52:36.541Z,4.18
2023-04-02T02:57:54.290Z,3.85
2023-04-02T03:02:59.057Z,4.13
2023-04-02T03:08:07.492Z,4.78
2023-04-02T03:13:22.478Z,4.05
2023-04-02T03:18:54.966Z,3.50
2023-04-02T03:24:01.715Z,3.78
2023-04-02T03:29:11.993Z,4.65
2023-04-02T03:34:20.505Z,4.50
2023-04-02T03:39:28.456Z,3.85
2023-04-02T03:44:54.654Z,3.22
2023-04-02T03:50:00.924Z,3.95
2023-04-02T03:55:12.190Z,3.50
2023-04-02T04:00:25.084Z,3.22
2023-04-02T04:05:38.061Z,3.53
2023-04-02T04:10:42.536Z,3.40
2023-04-02T04:15:45.951Z,4.40
2023-04-02T04:21:02.347Z,3.08
2023-04-02T04:26:13.300Z,2.95
2023-04-02T04:31:25.954Z,2.90
2023-04-02T04:36:33.991Z,2.97
2023-04-02T04:41:42.251Z,2.80
2023-04-02T04:47:00.634Z,2.63
2023-04-02T04:52:10.669Z,3.03
2023-04-02T04:57:30.238Z,2.80
2023-04-02T05:02:55.142Z,2.67
2023-04-02T05:08:01.100Z,3.00
2023-04-02T05:13:11.149Z,3.42
2023-04-02T05:18:28.306Z,2.60
2023-04-02T05:23:37.861Z,2.28
2023-04-02T05:28:47.994Z,2.33
2023-04-02T05:33:50.493Z,2.17
2023-04-02T05:38:53.816Z,2.13
2023-04-02T05:44:19.805Z,2.40
2023-04-02T05:49:48.049Z,2.10
2023-04-02T05:54:58.658Z,2.60
2023-04-02T06:00:06.357Z,3.60
2023-04-02T06:05:17.995Z,2.40
2023-04-02T06:10:24.969Z,2.20
2023-04-02T06:15:28.168Z,2.30
2023-04-02T06:20:36.201Z,2.33
2023-04-02T06:26:10.547Z,3.20
2023-04-02T06:31:29.100Z,2.38
2023-04-02T06:36:33.308Z,3.90
2023-04-02T06:41:39.857Z,4.35
2023-04-02T06:47:02.235Z,4.95
2023-04-02T06:52:09.111Z,3.58
2023-04-02T06:57:12.922Z,2.20
2023-04-02T07:02:33.750Z,3.50
2023-04-02T07:07:37.823Z,3.60
2023-04-02T07:12:43.579Z,2.45
2023-04-02T07:17:48.865Z,2.63
2023-04-02T07:22:51.806Z,2.70
2023-04-02T07:27:56.146Z,2.85
2023-04-02T07:32:59.020Z,3.47
2023-04-02T07:38:01.621Z,4.50
2023-04-02T07:43:05.089Z,3.88
2023-04-02T07:48:13.385Z,3.40
2023-04-02T07:53:30.223Z,3.22
2023-04-02T07:58:37.157Z,3.00
2023-04-02T08:03:39.624Z,3.13
2023-04-02T08:08:42.513Z,2.10
2023-04-02T08:13:47.285Z,3.40
2023-04-02T08:18:51.430Z,3.25
2023-04-02T08:23:54.135Z,2.73
2023-04-02T08:28:59.888Z,10.55
2023-04-02T08:34:03.347Z,5.25
2023-04-02T08:39:11.083Z,14.82
2023-04-02T08:44:18.961Z,6.30
2023-04-02T08:49:30.116Z,7.43
2023-04-02T08:54:38.215Z,17.85
2023-04-02T08:59:42.620Z,6.50
2023-04-02T09:04:45.326Z,7.30
2023-04-02T09:09:50.055Z,10.93
2023-04-02T09:15:18.639Z,6.50
2023-04-02T09:20:26.656Z,3.55
2023-04-02T09:25:31.612Z,4.68
2023-04-02T09:30:56.570Z,7.57
2023-04-02T09:35:59.389Z,5.97
2023-04-02T09:41:06.802Z,3.83
2023-04-02T09:46:24.013Z,5.93
2023-04-02T09:51:30.230Z,3.90
2023-04-02T09:56:34.470Z,4.85
2023-04-02T10:01:39.792Z,4.00
2023-04-02T10:06:50.003Z,3.78
2023-04-02T10:11:54.174Z,12.32
2023-04-02T10:16:58.598Z,6.78
2023-04-02T10:22:04.929Z,4.13
2023-04-02T10:27:26.411Z,7.15
2023-04-02T10:32:48.982Z,8.38
2023-04-02T10:38:16.285Z,9.80
2023-04-02T10:43:40.468Z,4.32
2023-04-02T10:49:13.678Z,3.45
2023-04-02T10:54:53.294Z,6.50
2023-04-02T11:00:07.043Z,4.30
2023-04-02T11:15:27.531Z,7.00
2023-04-02T11:20:48.440Z,6.25
2023-04-02T11:25:51.299Z,6.90
2023-04-02T11:30:54.034Z,5.90
2023-04-02T11:35:57.145Z,9.83
2023-04-02T11:41:00.050Z,4.63
2023-04-02T11:46:30.798Z,6.43
2023-04-02T11:51:33.589Z,4.00
2023-04-02T11:56:47.403Z,4.60
2023-04-02T12:02:17.403Z,3.55
2023-04-02T12:07:36.942Z,6.60
2023-04-02T12:12:39.662Z,8.15
2023-04-02T12:17:42.536Z,4.53
2023-04-02T12:22:54.039Z,5.40
2023-04-02T12:28:19.215Z,4.25
2023-04-02T12:33:37.595Z,5.03
2023-04-02T12:38:58.858Z,3.78
2023-04-02T12:44:03.543Z,4.05
2023-04-02T12:49:20.969Z,2.78
2023-04-02T12:54:23.393Z,2.90
2023-04-02T12:59:36.299Z,9.80
2023-04-02T13:04:50.308Z,13.80
2023-04-02T13:09:54.935Z,23.30
2023-04-02T13:14:58.647Z,7.55
2023-04-02T13:20:32.012Z,6.30
2023-04-02T13:25:36.668Z,5.50
2023-04-02T13:30:39.467Z,7.93
2023-04-02T13:35:42.729Z,6.78
2023-04-02T13:40:45.406Z,6.50
2023-04-02T13:45:51.520Z,4.17
2023-04-02T13:50:54.134Z,4.47
2023-04-02T13:55:57.581Z,2.67
2023-04-02T14:01:01.124Z,3.42
2023-04-02T14:11:23.522Z,5.97
2023-04-02T14:16:57.171Z,6.97
2023-04-02T14:22:21.443Z,3.67
2023-04-02T14:27:33.010Z,3.90
2023-04-02T14:32:51.639Z,3.08
2023-04-02T14:38:19.508Z,4.80
2023-04-02T14:43:28.551Z,4.00
2023-04-02T14:48:37.352Z,3.38
2023-04-02T14:53:51.868Z,4.03
2023-04-02T14:59:14.800Z,4.03
2023-04-02T15:04:21.244Z,3.70
2023-04-02T15:09:40.618Z,4.57
2023-04-02T15:14:46.624Z,5.60
2023-04-02T15:19:49.818Z,5.38
2023-04-02T15:25:06.985Z,4.18
2023-04-02T15:30:23.825Z,4.72
2023-04-02T15:35:32.666Z,4.13
2023-04-02T15:40:46.701Z,4.85
2023-04-02T15:46:00.665Z,6.47
2023-04-02T15:51:08.439Z,12.70
2023-04-02T15:56:25.122Z,8.20
2023-04-02T16:01:36.671Z,24.00
2023-04-02T16:07:03.822Z,14.38
2023-04-02T16:12:14.414Z,8.57
2023-04-02T16:17:25.844Z,8.52
2023-04-02T16:22:30.441Z,9.05
2023-04-02T16:27:38.687Z,9.90
2023-04-02T16:33:00.332Z,14.35
2023-04-02T16:38:23.293Z,13.65
2023-04-02T16:43:32.458Z,14.32
2023-04-02T16:48:45.128Z,16.70
2023-04-02T16:54:02.223Z,28.00
2023-04-02T16:59:16.605Z,32.63
2023-04-02T17:04:29.224Z,36.83
2023-04-02T17:09:48.353Z,27.13
2023-04-02T17:14:54.821Z,29.20
2023-04-02T17:19:59.323Z,19.75
2023-04-02T17:25:04.301Z,13.23
2023-04-02T17:30:13.846Z,9.65
2023-04-02T17:35:19.056Z,16.95
2023-04-02T17:40:42.531Z,9.32
2023-04-02T17:45:56.922Z,7.47
2023-04-02T17:51:09.594Z,11.80
2023-04-02T17:56:23.367Z,9.25
2023-04-02T18:01:52.891Z,9.05
2023-04-02T18:07:05.994Z,10.95
2023-04-02T18:12:37.114Z,12.75
2023-04-02T18:17:50.567Z,14.57
2023-04-02T18:23:25.619Z,8.23
2023-04-02T18:28:37.545Z,8.15
2023-04-02T18:33:58.342Z,8.88
2023-04-02T18:39:16.657Z,7.82
2023-04-02T18:44:23.416Z,9.95
2023-04-02T18:49:37.108Z,7.25
2023-04-02T18:54:43.760Z,7.18
2023-04-02T19:00:05.998Z,7.00
2023-04-02T19:05:15.436Z,6.85
2023-04-02T19:10:37.003Z,8.23
2023-04-02T19:16:18.368Z,7.25
2023-04-02T19:21:28.949Z,6.82
2023-04-02T19:26:44.522Z,7.60
2023-04-02T19:31:58.321Z,7.85
2023-04-02T19:37:10.182Z,6.70
2023-04-02T19:42:29.927Z,5.82
2023-04-02T19:47:32.549Z,6.57
2023-04-02T19:52:35.005Z,11.25
2023-04-02T19:57:37.629Z,6.07
2023-04-02T20:02:41.768Z,6.53
2023-04-02T20:07:44.242Z,6.07
2023-04-02T20:12:46.632Z,6.00
2023-04-02T20:17:49.179Z,5.53
2023-04-02T20:22:51.772Z,5.73
2023-04-02T20:27:54.716Z,6.22
2023-04-02T20:32:59.269Z,5.38
2023-04-02T20:38:06.656Z,6.72
2023-04-02T20:43:10.170Z,6.13
2023-04-02T20:48:13.385Z,5.25
2023-04-02T20:53:17.068Z,4.88
2023-04-02T20:58:19.506Z,5.47
2023-04-02T21:03:21.925Z,5.40
2023-04-02T21:08:24.594Z,7.95
2023-04-02T21:13:29.629Z,7.72
2023-04-02T21:18:32.359Z,8.43
2023-04-02T21:23:35.082Z,8.10
2023-04-02T21:28:37.444Z,7.63
2023-04-02T21:33:42.325Z,4.93
2023-04-02T21:38:47.021Z,4.25
2023-04-02T21:43:49.874Z,4.40
2023-04-02T21:48:54.185Z,3.20
2023-04-02T21:53:57.416Z,4.65
2023-04-02T21:59:02.141Z,4.00
2023-04-02T22:04:07.942Z,4.32
2023-04-02T22:09:13.702Z,3.72
2023-04-02T22:14:17.681Z,3.85
2023-04-02T22:19:20.161Z,4.03
2023-04-02T22:24:22.764Z,3.78
2023-04-02T22:29:25.561Z,3.70
2023-04-02T22:34:30.577Z,3.30
2023-04-02T22:39:32.964Z,3.43
2023-04-02T22:44:35.318Z,3.85
2023-04-02T22:49:37.632Z,3.50
2023-04-02T22:54:39.956Z,3.20
2023-04-02T22:59:42.273Z,3.33
2023-04-02T23:04:44.745Z,6.22
2023-04-02T23:09:47.206Z,4.78
2023-04-02T23:14:49.614Z,3.70
2023-04-02T23:19:52.079Z,3.20
2023-04-02T23:24:54.808Z,2.40
2023-04-02T23:29:57.675Z,3.50
2023-04-02T23:35:00.168Z,3.30
2023-04-02T23:40:02.542Z,3.40
2023-04-02T23:45:05.190Z,3.00
2023-04-02T23:50:08.038Z,3.67
2023-04-02T23:55:12.340Z,3.28
